This is the latest recevied weather packets stored in our database for station/object W5HKR. If no packets are shown the sender has not sent any weather packets the latest 10 day(s).
| Time | Temp. | Humidity | Pressure | Rain* | Wind** | Luminosity | Snow |
|---|---|---|---|---|---|---|---|
| 1777931009 | 18.33° C | 91% | 990.6 hPa | 0 mm | - | - | - |
| 1777930707 | 27.22° C | 60% | 982.7 hPa | 0 mm | - | - | - |
| 1777930079 | 18.33° C | 91% | 990.6 hPa | 0 mm | - | - | - |
| 1777929808 | 27.22° C | 62% | 982.4 hPa | 0 mm | - | - | - |
| 1777929507 | 18.33° C | 91% | 990.6 hPa | 0 mm | - | - | - |
| 1777929207 | 18.33° C | 91% | 990.6 hPa | 0 mm | - | - | - |
| 1777928999 | 18.33° C | 91% | 990.6 hPa | 0 mm | - | - | - |
| 1777928908 | 27.22° C | 62% | 982.8 hPa | 0 mm | - | - | - |
| 1777928607 | 18.33° C | 91% | 990.6 hPa | 0 mm | - | - | - |
| 1777928308 | 26.67° C | 62% | 983.2 hPa | 0 mm | - | - | - |
| 1777928009 | 27.22° C | 60% | 983.1 hPa | 0 mm | - | - | - |
| 1777927919 | 27.22° C | 62% | 983.3 hPa | 0 mm | - | - | - |
| 1777927708 | 27.22° C | 63% | 983.1 hPa | 0 mm | - | - | - |
| 1777927408 | 27.22° C | 62% | 983.1 hPa | 0 mm | - | - | - |
| 1777927109 | 26.67° C | 64% | 983.1 hPa | 0 mm | - | - | - |
| 1777926838 | 26.67° C | 63% | 983.4 hPa | 0 mm | - | - | - |
| 1777926807 | 26.67° C | 63% | 983.4 hPa | 0 mm | - | - | - |
| 1777926509 | 26.67° C | 62% | 983.7 hPa | 0 mm | - | - | - |
| 1777926208 | 26.67° C | 63% | 983.7 hPa | 0 mm | - | - | - |
| 1777925908 | 26.67° C | 63% | 983.8 hPa | 0 mm | - | - | - |
| 1777925760 | 18.33° C | 91% | 990.6 hPa | 0 mm | - | - | - |
| 1777925658 | 27.22° C | 61% | 983.6 hPa | 0 mm | - | - | - |
| 1777925658 | 26.67° C | 61% | 984 hPa | 0 mm | - | - | - |
| 1777925658 | 26.67° C | 62% | 983.9 hPa | 0 mm | - | - | - |
| 1777925608 | 18.33° C | 91% | 990.6 hPa | 0 mm | - | - | - |
* Rain latest hour (hover to see other rain measurements)
** Current wind speed in m/s (hover to see current wind gust speed)